Avon Park, Florida
Current Conditions -  °F | °C
As of 8:15 PM on Sunday 21 Dec 2014 (Local Time) from KBOW Reporting Station
Clear Clear  
Wind Chill: 66°   Ceiling: Unl
Heat Index: 66°   Visibility: 10mi
Dew Point: 64°   Wind: 6mph
Humidity: 94%   Direction: 30°NNE
Pressure: 30.04"   Gusts: NA
Location:  27.6°N, 81.51°W
Report Text: KBOW 220115Z AUTO 03005KT 10SM CLR 19/18 A3004 RMK AO2
Loading
Personal Weather Stations






























Interactive Weather Map New forecast layout! Learn more

10-Day Weather Forecast

Advertisements
Track Severe Weather on mobile